sensor_id;sensor_type;location;lat;lon;timestamp;pressure;altitude;pressure_sealevel;temperature;humidity
73981;BME280;62348;51.412;5.436;2024-03-23T00:55:23;100951.41;;;7.10;100.00
73981;BME280;62348;51.412;5.436;2024-03-23T00:57:48;100948.94;;;7.09;100.00
73981;BME280;62348;51.412;5.436;2024-03-23T01:00:14;100936.81;;;7.06;100.00
73981;BME280;62348;51.412;5.436;2024-03-23T01:02:39;100933.06;;;7.07;100.00
73981;BME280;62348;51.412;5.436;2024-03-23T01:05:05;100932.69;;;7.03;100.00
73981;BME280;62348;51.412;5.436;2024-03-23T01:07:30;100936.69;;;7.01;100.00
73981;BME280;62348;51.412;5.436;2024-03-23T01:09:56;100935.28;;;6.98;100.00
73981;BME280;62348;51.412;5.436;2024-03-23T01:12:21;100934.44;;;6.98;100.00
73981;BME280;62348;51.412;5.436;2024-03-23T01:14:47;100925.59;;;6.97;100.00
73981;BME280;62348;51.412;5.436;2024-03-23T01:17:12;100904.31;;;6.96;100.00
73981;BME280;62348;51.412;5.436;2024-03-23T01:19:37;100899.16;;;6.94;100.00
73981;BME280;62348;51.412;5.436;2024-03-23T01:22:04;100904.53;;;6.94;100.00
73981;BME280;62348;51.412;5.436;2024-03-23T01:24:30;100908.28;;;6.93;100.00
73981;BME280;62348;51.412;5.436;2024-03-23T01:26:55;100902.09;;;6.93;100.00
73981;BME280;62348;51.412;5.436;2024-03-23T01:29:21;100914.69;;;6.92;100.00
73981;BME280;62348;51.412;5.436;2024-03-23T01:31:46;100921.97;;;6.92;100.00
73981;BME280;62348;51.412;5.436;2024-03-23T01:34:11;100924.66;;;6.92;100.00
73981;BME280;62348;51.412;5.436;2024-03-23T01:36:37;100904.22;;;6.91;100.00
73981;BME280;62348;51.412;5.436;2024-03-23T01:39:03;100905.25;;;6.90;100.00
73981;BME280;62348;51.412;5.436;2024-03-23T01:41:28;100920.78;;;6.88;100.00
73981;BME280;62348;51.412;5.436;2024-03-23T01:43:55;100929.91;;;6.87;100.00
73981;BME280;62348;51.412;5.436;2024-03-23T01:46:20;100923.94;;;6.84;100.00
73981;BME280;62348;51.412;5.436;2024-03-23T01:48:46;100915.28;;;6.82;100.00
73981;BME280;62348;51.412;5.436;2024-03-23T01:51:12;100900.47;;;6.80;100.00
73981;BME280;62348;51.412;5.436;2024-03-23T01:53:38;100899.88;;;6.78;100.00
73981;BME280;62348;51.412;5.436;2024-03-23T01:56:03;100898.22;;;6.77;100.00
73981;BME280;62348;51.412;5.436;2024-03-23T01:58:29;100900.13;;;6.76;100.00
73981;BME280;62348;51.412;5.436;2024-03-23T02:00:54;100902.22;;;6.74;100.00
73981;BME280;62348;51.412;5.436;2024-03-23T02:03:26;100905.72;;;6.75;100.00
73981;BME280;62348;51.412;5.436;2024-03-23T02:05:53;100906.78;;;6.74;100.00
73981;BME280;62348;51.412;5.436;2024-03-23T02:08:21;100913.19;;;6.73;100.00
73981;BME280;62348;51.412;5.436;2024-03-23T02:10:48;100928.50;;;6.72;100.00
73981;BME280;62348;51.412;5.436;2024-03-23T02:13:14;100931.88;;;6.68;100.00
73981;BME280;62348;51.412;5.436;2024-03-23T02:15:41;100935.03;;;6.64;100.00
73981;BME280;62348;51.412;5.436;2024-03-23T02:18:09;100930.34;;;6.60;100.00
73981;BME280;62348;51.412;5.436;2024-03-23T02:20:35;100932.09;;;6.54;100.00
73981;BME280;62348;51.412;5.436;2024-03-23T02:23:01;100917.50;;;6.50;100.00
73981;BME280;62348;51.412;5.436;2024-03-23T02:25:26;100914.44;;;6.47;100.00
73981;BME280;62348;51.412;5.436;2024-03-23T02:27:52;100900.66;;;6.43;100.00
73981;BME280;62348;51.412;5.436;2024-03-23T02:30:19;100893.09;;;6.40;100.00
73981;BME280;62348;51.412;5.436;2024-03-23T02:32:45;100873.13;;;6.36;100.00
73981;BME280;62348;51.412;5.436;2024-03-23T02:35:10;100874.16;;;6.35;100.00
73981;BME280;62348;51.412;5.436;2024-03-23T02:37:36;100869.00;;;6.33;100.00
73981;BME280;62348;51.412;5.436;2024-03-23T02:40:01;100875.22;;;6.34;100.00
73981;BME280;62348;51.412;5.436;2024-03-23T02:42:27;100878.72;;;6.34;100.00
73981;BME280;62348;51.412;5.436;2024-03-23T02:44:52;100875.22;;;6.34;100.00
73981;BME280;62348;51.412;5.436;2024-03-23T02:47:17;100879.53;;;6.35;100.00
73981;BME280;62348;51.412;5.436;2024-03-23T02:49:43;100874.16;;;6.35;100.00
73981;BME280;62348;51.412;5.436;2024-03-23T02:52:08;100870.66;;;6.34;100.00
73981;BME280;62348;51.412;5.436;2024-03-23T02:54:34;100859.91;;;6.34;100.00
73981;BME280;62348;51.412;5.436;2024-03-23T02:56:59;100870.66;;;6.34;100.00
73981;BME280;62348;51.412;5.436;2024-03-23T02:59:24;100869.22;;;6.32;100.00
73981;BME280;62348;51.412;5.436;2024-03-23T03:01:50;100858.75;;;6.30;100.00
73981;BME280;62348;51.412;5.436;2024-03-23T03:04:15;100867.84;;;6.29;100.00
73981;BME280;62348;51.412;5.436;2024-03-23T03:06:40;100864.81;;;6.25;100.00
73981;BME280;62348;51.412;5.436;2024-03-23T03:09:06;100867.72;;;6.24;100.00
73981;BME280;62348;51.412;5.436;2024-03-23T03:11:31;100869.81;;;6.22;100.00
73981;BME280;62348;51.412;5.436;2024-03-23T03:13:56;100871.09;;;6.19;100.00
73981;BME280;62348;51.412;5.436;2024-03-23T03:16:22;100868.41;;;6.19;100.00
73981;BME280;62348;51.412;5.436;2024-03-23T03:18:47;100869.72;;;6.17;100.00
73981;BME280;62348;51.412;5.436;2024-03-23T03:21:13;100867.25;;;6.15;100.00
73981;BME280;62348;51.412;5.436;2024-03-23T03:23:38;100875.75;;;6.12;100.00
73981;BME280;62348;51.412;5.436;2024-03-23T03:26:04;100870.59;;;6.11;100.00
73981;BME280;62348;51.412;5.436;2024-03-23T03:28:34;100868.97;;;6.10;100.00
73981;BME280;62348;51.412;5.436;2024-03-23T03:31:00;100866.75;;;6.06;100.00
73981;BME280;62348;51.412;5.436;2024-03-23T03:33:26;100869.44;;;6.06;100.00
73981;BME280;62348;51.412;5.436;2024-03-23T03:35:52;100863.47;;;6.04;100.00
73981;BME280;62348;51.412;5.436;2024-03-23T03:38:18;100866.97;;;6.05;100.00
73981;BME280;62348;51.412;5.436;2024-03-23T03:40:44;100864.53;;;6.03;100.00
73981;BME280;62348;51.412;5.436;2024-03-23T03:43:09;100860.22;;;6.02;100.00
73981;BME280;62348;51.412;5.436;2024-03-23T03:45:35;100864.19;;;6.00;100.00
73981;BME280;62348;51.412;5.436;2024-03-23T03:48:00;100857.97;;;5.99;100.00
73981;BME280;62348;51.412;5.436;2024-03-23T03:50:26;100855.53;;;5.98;100.00
73981;BME280;62348;51.412;5.436;2024-03-23T03:52:51;100860.31;;;5.96;100.00
73981;BME280;62348;51.412;5.436;2024-03-23T03:55:17;100844.63;;;5.93;100.00
73981;BME280;62348;51.412;5.436;2024-03-23T03:57:42;100845.94;;;5.90;100.00
73981;BME280;62348;51.412;5.436;2024-03-23T04:00:08;100847.41;;;5.86;100.00
73981;BME280;62348;51.412;5.436;2024-03-23T04:02:37;100852.19;;;5.84;100.00
73981;BME280;62348;51.412;5.436;2024-03-23T04:05:03;100850.78;;;5.81;100.00
73981;BME280;62348;51.412;5.436;2024-03-23T04:07:28;100858.25;;;5.79;100.00
73981;BME280;62348;51.412;5.436;2024-03-23T04:09:54;100858.47;;;5.78;100.00
73981;BME280;62348;51.412;5.436;2024-03-23T04:12:19;100852.53;;;5.76;100.00
73981;BME280;62348;51.412;5.436;2024-03-23T04:14:45;100857.75;;;5.71;100.00
73981;BME280;62348;51.412;5.436;2024-03-23T04:17:11;100854.47;;;5.68;100.00
73981;BME280;62348;51.412;5.436;2024-03-23T04:19:36;100853.28;;;5.64;100.00
73981;BME280;62348;51.412;5.436;2024-03-23T04:22:02;100846.31;;;5.63;100.00
73981;BME280;62348;51.412;5.436;2024-03-23T04:24:28;100858.28;;;5.61;100.00
73981;BME280;62348;51.412;5.436;2024-03-23T04:26:54;100857.72;;;5.59;100.00
73981;BME280;62348;51.412;5.436;2024-03-23T04:29:20;100851.53;;;5.58;100.00
73981;BME280;62348;51.412;5.436;2024-03-23T04:31:45;100854.44;;;5.57;100.00
73981;BME280;62348;51.412;5.436;2024-03-23T04:34:11;100856.53;;;5.55;100.00
73981;BME280;62348;51.412;5.436;2024-03-23T04:36:36;100854.06;;;5.53;100.00
73981;BME280;62348;51.412;5.436;2024-03-23T04:39:02;100849.75;;;5.52;100.00
73981;BME280;62348;51.412;5.436;2024-03-23T04:41:27;100848.34;;;5.50;100.00
73981;BME280;62348;51.412;5.436;2024-03-23T04:43:53;100858.47;;;5.47;100.00
73981;BME280;62348;51.412;5.436;2024-03-23T04:46:18;100857.88;;;5.45;100.00
73981;BME280;62348;51.412;5.436;2024-03-23T04:48:43;100860.19;;;5.42;100.00
73981;BME280;62348;51.412;5.436;2024-03-23T04:51:10;100860.19;;;5.42;100.00
73981;BME280;62348;51.412;5.436;2024-03-23T04:53:38;100848.06;;;5.39;100.00
73981;BME280;62348;51.412;5.436;2024-03-23T04:56:03;100851.78;;;5.38;100.00
73981;BME280;62348;51.412;5.436;2024-03-23T04:58:29;100856.56;;;5.36;100.00
73981;BME280;62348;51.412;5.436;2024-03-23T05:00:55;100862.38;;;5.33;100.00
73981;BME280;62348;51.412;5.436;2024-03-23T05:03:21;100856.19;;;5.33;100.00
73981;BME280;62348;51.412;5.436;2024-03-23T05:05:48;100856.19;;;5.33;100.00
73981;BME280;62348;51.412;5.436;2024-03-23T05:08:14;100856.41;;;5.31;100.00
73981;BME280;62348;51.412;5.436;2024-03-23T05:10:41;100852.09;;;5.30;100.00
73981;BME280;62348;51.412;5.436;2024-03-23T05:13:06;100846.97;;;5.28;100.00
73981;BME280;62348;51.412;5.436;2024-03-23T05:15:32;100848.03;;;5.27;100.00
73981;BME280;62348;51.412;5.436;2024-03-23T05:17:57;100853.38;;;5.27;100.00
73981;BME280;62348;51.412;5.436;2024-03-23T05:20:23;100852.78;;;5.25;100.00
73981;BME280;62348;51.412;5.436;2024-03-23T05:22:49;100852.16;;;5.23;100.00
73981;BME280;62348;51.412;5.436;2024-03-23T05:25:14;100858.38;;;5.24;100.00
73981;BME280;62348;51.412;5.436;2024-03-23T05:27:41;100854.25;;;5.21;100.00
73981;BME280;62348;51.412;5.436;2024-03-23T05:30:07;100853.44;;;5.21;100.00
73981;BME280;62348;51.412;5.436;2024-03-23T05:32:34;100849.59;;;5.17;100.00
73981;BME280;62348;51.412;5.436;2024-03-23T05:34:59;100854.13;;;5.16;100.00
73981;BME280;62348;51.412;5.436;2024-03-23T05:37:25;100860.53;;;5.15;100.00
73981;BME280;62348;51.412;5.436;2024-03-23T05:39:51;100855.38;;;5.14;100.00
73981;BME280;62348;51.412;5.436;2024-03-23T05:42:17;100856.44;;;5.13;100.00
73981;BME280;62348;51.412;5.436;2024-03-23T05:44:45;100857.47;;;5.12;100.00
73981;BME280;62348;51.412;5.436;2024-03-23T05:47:11;100852.31;;;5.10;100.00
73981;BME280;62348;51.412;5.436;2024-03-23T05:49:42;100844.28;;;5.10;100.00
73981;BME280;62348;51.412;5.436;2024-03-23T05:52:08;100843.25;;;5.11;100.00
73981;BME280;62348;51.412;5.436;2024-03-23T05:54:34;100844.28;;;5.10;100.00
73981;BME280;62348;51.412;5.436;2024-03-23T05:56:59;100842.19;;;5.12;100.00
73981;BME280;62348;51.412;5.436;2024-03-23T05:59:25;100837.69;;;5.13;100.00
73981;BME280;62348;51.412;5.436;2024-03-23T06:01:51;100841.38;;;5.12;100.00
73981;BME280;62348;51.412;5.436;2024-03-23T06:04:17;100835.00;;;5.13;100.00
73981;BME280;62348;51.412;5.436;2024-03-23T06:06:42;100840.34;;;5.13;100.00
73981;BME280;62348;51.412;5.436;2024-03-23T06:09:07;100839.28;;;5.14;100.00
73981;BME280;62348;51.412;5.436;2024-03-23T06:11:33;100844.44;;;5.15;100.00
73981;BME280;62348;51.412;5.436;2024-03-23T06:13:58;100843.84;;;5.13;100.00
73981;BME280;62348;51.412;5.436;2024-03-23T06:16:24;100858.91;;;5.14;100.00
73981;BME280;62348;51.412;5.436;2024-03-23T06:18:50;100855.97;;;5.16;100.00
73981;BME280;62348;51.412;5.436;2024-03-23T06:21:16;100858.22;;;5.19;100.00
73981;BME280;62348;51.412;5.436;2024-03-23T06:23:42;100864.75;;;5.23;100.00
73981;BME280;62348;51.412;5.436;2024-03-23T06:26:07;100861.63;;;5.26;100.00
73981;BME280;62348;51.412;5.436;2024-03-23T06:28:34;100863.84;;;5.29;100.00
73981;BME280;62348;51.412;5.436;2024-03-23T06:30:59;100862.38;;;5.33;100.00
73981;BME280;62348;51.412;5.436;2024-03-23T06:33:24;100855.06;;;5.40;100.00
73981;BME280;62348;51.412;5.436;2024-03-23T06:35:53;100863.63;;;5.49;100.00
73981;BME280;62348;51.412;5.436;2024-03-23T06:38:18;100861.09;;;5.54;100.00
73981;BME280;62348;51.412;5.436;2024-03-23T06:40:44;100858.66;;;5.64;100.00
73981;BME280;62348;51.412;5.436;2024-03-23T06:43:13;100862.34;;;5.82;100.00
73981;BME280;62348;51.412;5.436;2024-03-23T06:45:38;100860.38;;;5.89;100.00
73981;BME280;62348;51.412;5.436;2024-03-23T06:48:04;100860.16;;;5.91;100.00
73981;BME280;62348;51.412;5.436;2024-03-23T06:50:33;100860.38;;;5.89;100.00
73981;BME280;62348;51.412;5.436;2024-03-23T06:52:58;100861.44;;;5.88;100.00
73981;BME280;62348;51.412;5.436;2024-03-23T06:55:24;100859.22;;;5.85;100.00
73981;BME280;62348;51.412;5.436;2024-03-23T06:57:52;100871.44;;;5.81;100.00
73981;BME280;62348;51.412;5.436;2024-03-23T07:00:17;100870.03;;;5.78;100.00
73981;BME280;62348;51.412;5.436;2024-03-23T07:02:44;100870.72;;;5.74;100.00
73981;BME280;62348;51.412;5.436;2024-03-23T07:05:10;100876.31;;;5.72;100.00
73981;BME280;62348;51.412;5.436;2024-03-23T07:07:36;100873.03;;;5.70;100.00
73981;BME280;62348;51.412;5.436;2024-03-23T07:10:02;100876.75;;;5.69;100.00
73981;BME280;62348;51.412;5.436;2024-03-23T07:12:28;100873.84;;;5.71;100.00
73981;BME280;62348;51.412;5.436;2024-03-23T07:14:53;100876.81;;;5.81;100.00
73981;BME280;62348;51.412;5.436;2024-03-23T07:17:19;100866.03;;;5.99;100.00
73981;BME280;62348;51.412;5.436;2024-03-23T07:19:44;100887.06;;;6.14;100.00
73981;BME280;62348;51.412;5.436;2024-03-23T07:22:09;100875.75;;;6.24;100.00
73981;BME280;62348;51.412;5.436;2024-03-23T07:24:35;100885.25;;;6.38;100.00
73981;BME280;62348;51.412;5.436;2024-03-23T07:27:01;100883.16;;;6.52;100.00
73981;BME280;62348;51.412;5.436;2024-03-23T07:29:28;100884.56;;;6.67;100.00
73981;BME280;62348;51.412;5.436;2024-03-23T07:31:54;100889.00;;;6.73;100.00
73981;BME280;62348;51.412;5.436;2024-03-23T07:34:19;100895.09;;;6.68;100.00
73981;BME280;62348;51.412;5.436;2024-03-23T07:36:45;100884.81;;;6.65;100.00
73981;BME280;62348;51.412;5.436;2024-03-23T07:39:10;100893.56;;;6.72;100.00
73981;BME280;62348;51.412;5.436;2024-03-23T07:41:36;100892.88;;;6.89;100.00
73981;BME280;62348;51.412;5.436;2024-03-23T07:44:02;100893.22;;;7.04;100.00
73981;BME280;62348;51.412;5.436;2024-03-23T07:46:27;100892.59;;;7.14;100.00
73981;BME280;62348;51.412;5.436;2024-03-23T07:48:53;100883.94;;;7.23;100.00
73981;BME280;62348;51.412;5.436;2024-03-23T07:51:20;100872.06;;;7.48;100.00
73981;BME280;62348;51.412;5.436;2024-03-23T07:53:46;100874.97;;;7.75;100.00
73981;BME280;62348;51.412;5.436;2024-03-23T07:56:14;100875.81;;;8.21;100.00
73981;BME280;62348;51.412;5.436;2024-03-23T07:58:44;100875.63;;;8.79;100.00
73981;BME280;62348;51.412;5.436;2024-03-23T08:01:11;100880.56;;;9.26;100.00
73981;BME280;62348;51.412;5.436;2024-03-23T08:03:39;100878.16;;;9.52;100.00
73981;BME280;62348;51.412;5.436;2024-03-23T08:06:18;100881.88;;;9.46;100.00
73981;BME280;62348;51.412;5.436;2024-03-23T08:08:54;100879.91;;;9.63;100.00
73981;BME280;62348;51.412;5.436;2024-03-23T08:11:30;100879.31;;;9.83;100.00
73981;BME280;62348;51.412;5.436;2024-03-23T08:13:56;100886.47;;;10.00;100.00
73981;BME280;62348;51.412;5.436;2024-03-23T08:16:22;100873.38;;;10.13;100.00
73981;BME280;62348;51.412;5.436;2024-03-23T08:18:47;100882.34;;;10.19;100.00
73981;BME280;62348;51.412;5.436;2024-03-23T08:21:13;100874.13;;;10.04;100.00
73981;BME280;62348;51.412;5.436;2024-03-23T08:23:38;100872.06;;;9.89;100.00
73981;BME280;62348;51.412;5.436;2024-03-23T08:26:08;100881.22;;;9.83;100.00
73981;BME280;62348;51.412;5.436;2024-03-23T08:28:34;100874.94;;;9.77;100.00
73981;BME280;62348;51.412;5.436;2024-03-23T08:31:01;100875.91;;;9.66;100.00
73981;BME280;62348;51.412;5.436;2024-03-23T08:33:28;100867.56;;;9.45;100.00
73981;BME280;62348;51.412;5.436;2024-03-23T08:35:54;100871.84;;;9.41;100.00
73981;BME280;62348;51.412;5.436;2024-03-23T08:38:23;100870.34;;;9.28;100.00
73981;BME280;62348;51.412;5.436;2024-03-23T08:41:02;100865.69;;;9.02;100.00
73981;BME280;62348;51.412;5.436;2024-03-23T08:43:29;100867.97;;;8.71;100.00
73981;BME280;62348;51.412;5.436;2024-03-23T08:48:32;100875.16;;;8.31;100.00
73981;BME280;62348;51.412;5.436;2024-03-23T08:51:10;100866.88;;;8.21;100.00
73981;BME280;62348;51.412;5.436;2024-03-23T08:53:36;100860.59;;;8.15;100.00
73981;BME280;62348;51.412;5.436;2024-03-23T08:56:02;100866.06;;;8.20;100.00
73981;BME280;62348;51.412;5.436;2024-03-23T08:58:28;100857.19;;;8.20;100.00
73981;BME280;62348;51.412;5.436;2024-03-23T09:00:56;100860.34;;;8.17;100.00
73981;BME280;62348;51.412;5.436;2024-03-23T09:03:25;100865.41;;;8.13;100.00
73981;BME280;62348;51.412;5.436;2024-03-23T09:05:51;100871.38;;;8.15;100.00
73981;BME280;62348;51.412;5.436;2024-03-23T09:08:17;100867.31;;;8.30;100.00
73981;BME280;62348;51.412;5.436;2024-03-23T09:10:43;100869.25;;;8.34;100.00
73981;BME280;62348;51.412;5.436;2024-03-23T09:13:09;100883.63;;;8.23;100.00
73981;BME280;62348;51.412;5.436;2024-03-23T09:15:49;100880.84;;;8.01;100.00
73981;BME280;62348;51.412;5.436;2024-03-23T09:18:15;100882.34;;;7.80;100.00
73981;BME280;62348;51.412;5.436;2024-03-23T09:20:41;100881.34;;;7.69;100.00
73981;BME280;62348;51.412;5.436;2024-03-23T09:23:06;100887.81;;;7.56;100.00
73981;BME280;62348;51.412;5.436;2024-03-23T09:25:32;100898.84;;;7.43;100.00
73981;BME280;62348;51.412;5.436;2024-03-23T09:27:58;100885.09;;;7.28;100.00
73981;BME280;62348;51.412;5.436;2024-03-23T09:30:23;100881.72;;;7.20;100.00
73981;BME280;62348;51.412;5.436;2024-03-23T09:32:49;100877.88;;;7.16;100.00
73981;BME280;62348;51.412;5.436;2024-03-23T09:35:14;100879.03;;;7.09;100.00
73981;BME280;62348;51.412;5.436;2024-03-23T09:37:39;100881.03;;;7.01;100.00
73981;BME280;62348;51.412;5.436;2024-03-23T09:40:09;100882.91;;;7.01;100.00
73981;BME280;62348;51.412;5.436;2024-03-23T09:42:35;100872.75;;;7.03;100.00
73981;BME280;62348;51.412;5.436;2024-03-23T09:45:00;100883.50;;;7.03;100.00
73981;BME280;62348;51.412;5.436;2024-03-23T09:47:26;100866.91;;;7.06;100.00
73981;BME280;62348;51.412;5.436;2024-03-23T09:49:52;100867.59;;;7.13;100.00
73981;BME280;62348;51.412;5.436;2024-03-23T09:52:18;100868.50;;;7.19;100.00
73981;BME280;62348;51.412;5.436;2024-03-23T09:54:44;100872.94;;;7.25;100.00
73981;BME280;62348;51.412;5.436;2024-03-23T09:57:10;100861.47;;;7.30;100.00
73981;BME280;62348;51.412;5.436;2024-03-23T09:59:36;100857.16;;;7.29;100.00
73981;BME280;62348;51.412;5.436;2024-03-23T10:02:02;100868.13;;;7.27;100.00
73981;BME280;62348;51.412;5.436;2024-03-23T10:04:41;100876.66;;;7.24;100.00
73981;BME280;62348;51.412;5.436;2024-03-23T10:07:14;100891.88;;;7.18;100.00
73981;BME280;62348;51.412;5.436;2024-03-23T10:09:39;100873.78;;;7.14;100.00
73981;BME280;62348;51.412;5.436;2024-03-23T10:12:12;100884.09;;;6.93;100.00
73981;BME280;62348;51.412;5.436;2024-03-23T10:14:41;100873.25;;;6.76;100.00
73981;BME280;62348;51.412;5.436;2024-03-23T10:17:17;100865.78;;;6.67;100.00
73981;BME280;62348;51.412;5.436;2024-03-23T10:19:48;100864.59;;;6.62;100.00
73981;BME280;62348;51.412;5.436;2024-03-23T10:24:43;100847.09;;;6.72;100.00
73981;BME280;62348;51.412;5.436;2024-03-23T10:27:08;100856.75;;;6.84;100.00
73981;BME280;62348;51.412;5.436;2024-03-23T10:29:34;100864.91;;;7.01;100.00
73981;BME280;62348;51.412;5.436;2024-03-23T10:32:12;100853.44;;;7.18;100.00
73981;BME280;62348;51.412;5.436;2024-03-23T10:34:39;100850.47;;;7.31;100.00
73981;BME280;62348;51.412;5.436;2024-03-23T10:37:05;100847.63;;;7.38;100.00
73981;BME280;62348;51.412;5.436;2024-03-23T10:39:36;100854.88;;;7.37;100.00
73981;BME280;62348;51.412;5.436;2024-03-23T10:42:06;100856.66;;;7.32;100.00
73981;BME280;62348;51.412;5.436;2024-03-23T10:44:36;100849.78;;;7.24;100.00
73981;BME280;62348;51.412;5.436;2024-03-23T10:47:02;100859.84;;;7.17;100.00
73981;BME280;62348;51.412;5.436;2024-03-23T10:49:35;100849.81;;;7.12;100.00
73981;BME280;62348;51.412;5.436;2024-03-23T10:52:02;100849.44;;;7.20;100.00
73981;BME280;62348;51.412;5.436;2024-03-23T10:54:29;100851.38;;;7.37;100.00
73981;BME280;62348;51.412;5.436;2024-03-23T10:57:01;100836.00;;;7.49;100.00
73981;BME280;62348;51.412;5.436;2024-03-23T10:59:28;100832.84;;;7.52;100.00
73981;BME280;62348;51.412;5.436;2024-03-23T11:01:58;100832.72;;;7.59;100.00
73981;BME280;62348;51.412;5.436;2024-03-23T11:06:57;100826.72;;;7.40;100.00
73981;BME280;62348;51.412;5.436;2024-03-23T11:12:25;100845.22;;;7.24;100.00
73981;BME280;62348;51.412;5.436;2024-03-23T11:15:05;100849.19;;;7.22;100.00
73981;BME280;62348;51.412;5.436;2024-03-23T11:17:31;100858.56;;;7.19;100.00
73981;BME280;62348;51.412;5.436;2024-03-23T11:20:01;100861.88;;;7.10;100.00
73981;BME280;62348;51.412;5.436;2024-03-23T11:22:44;100850.19;;;7.04;100.00
73981;BME280;62348;51.412;5.436;2024-03-23T11:27:42;100853.81;;;6.98;100.00
73981;BME280;62348;51.412;5.436;2024-03-23T11:30:18;100857.75;;;7.07;100.00
73981;BME280;62348;51.412;5.436;2024-03-23T11:32:46;100845.34;;;7.18;100.00
73981;BME280;62348;51.412;5.436;2024-03-23T11:35:31;100859.84;;;7.29;100.00
73981;BME280;62348;51.412;5.436;2024-03-23T11:38:24;100860.88;;;7.28;100.00
73981;BME280;62348;51.412;5.436;2024-03-23T11:40:50;100864.53;;;7.21;99.42
73981;BME280;62348;51.412;5.436;2024-03-23T11:43:17;100856.34;;;7.16;99.85
73981;BME280;62348;51.412;5.436;2024-03-23T11:45:48;100858.91;;;7.11;100.00
73981;BME280;62348;51.412;5.436;2024-03-23T11:48:16;100862.34;;;7.07;100.00
73981;BME280;62348;51.412;5.436;2024-03-23T11:50:49;100896.13;;;7.02;100.00
73981;BME280;62348;51.412;5.436;2024-03-23T11:53:22;100906.19;;;6.95;99.29
73981;BME280;62348;51.412;5.436;2024-03-23T11:56:00;100906.19;;;6.83;100.00
73981;BME280;62348;51.412;5.436;2024-03-23T11:58:28;100887.03;;;6.68;100.00
73981;BME280;62348;51.412;5.436;2024-03-23T12:01:01;100888.88;;;6.56;100.00
73981;BME280;62348;51.412;5.436;2024-03-23T12:03:28;100903.34;;;6.43;100.00
73981;BME280;62348;51.412;5.436;2024-03-23T12:05:55;100904.41;;;6.30;100.00
73981;BME280;62348;51.412;5.436;2024-03-23T12:08:25;100903.78;;;6.16;100.00
73981;BME280;62348;51.412;5.436;2024-03-23T12:13:33;100886.13;;;6.09;100.00
73981;BME280;62348;51.412;5.436;2024-03-23T12:16:20;100868.56;;;6.24;100.00
73981;BME280;62348;51.412;5.436;2024-03-23T12:18:47;100858.16;;;6.40;100.00
73981;BME280;62348;51.412;5.436;2024-03-23T12:21:13;100854.19;;;6.54;100.00
73981;BME280;62348;51.412;5.436;2024-03-23T12:23:39;100842.63;;;6.65;100.00
73981;BME280;62348;51.412;5.436;2024-03-23T12:26:05;100848.00;;;6.77;100.00
73981;BME280;62348;51.412;5.436;2024-03-23T12:28:32;100846.69;;;6.92;100.00
73981;BME280;62348;51.412;5.436;2024-03-23T12:30:57;100847.50;;;7.04;100.00
73981;BME280;62348;51.412;5.436;2024-03-23T12:33:23;100839.75;;;7.19;100.00
73981;BME280;62348;51.412;5.436;2024-03-23T12:35:49;100834.66;;;7.35;100.00
73981;BME280;62348;51.412;5.436;2024-03-23T12:38:15;100835.19;;;7.49;100.00
73981;BME280;62348;51.412;5.436;2024-03-23T12:40:40;100833.41;;;7.54;100.00
73981;BME280;62348;51.412;5.436;2024-03-23T12:43:06;100823.72;;;7.53;100.00
73981;BME280;62348;51.412;5.436;2024-03-23T12:45:33;100832.38;;;7.55;100.00
73981;BME280;62348;51.412;5.436;2024-03-23T12:47:58;100827.34;;;7.59;98.58
73981;BME280;62348;51.412;5.436;2024-03-23T12:50:23;100823.22;;;7.56;97.86
73981;BME280;62348;51.412;5.436;2024-03-23T12:52:49;100807.81;;;7.52;97.40
73981;BME280;62348;51.412;5.436;2024-03-23T12:55:14;100820.13;;;7.48;97.18
73981;BME280;62348;51.412;5.436;2024-03-23T12:57:40;100818.81;;;7.50;100.00
73981;BME280;62348;51.412;5.436;2024-03-23T13:00:08;100824.03;;;7.57;99.39
73981;BME280;62348;51.412;5.436;2024-03-23T13:02:37;100819.25;;;7.59;96.52
73981;BME280;62348;51.412;5.436;2024-03-23T13:05:04;100811.19;;;7.59;96.08
73981;BME280;62348;51.412;5.436;2024-03-23T13:07:29;100815.81;;;7.63;95.43
73981;BME280;62348;51.412;5.436;2024-03-23T13:09:54;100819.66;;;7.68;96.26
73981;BME280;62348;51.412;5.436;2024-03-23T13:12:21;100810.88;;;7.72;96.42
73981;BME280;62348;51.412;5.436;2024-03-23T13:14:47;100799.72;;;7.80;95.29
73981;BME280;62348;51.412;5.436;2024-03-23T13:17:13;100804.34;;;7.85;93.09
73981;BME280;62348;51.412;5.436;2024-03-23T13:19:38;100818.97;;;7.89;93.57
73981;BME280;62348;51.412;5.436;2024-03-23T13:22:04;100812.75;;;7.89;94.43
73981;BME280;62348;51.412;5.436;2024-03-23T13:24:30;100812.75;;;7.89;95.64
73981;BME280;62348;51.412;5.436;2024-03-23T13:26:56;100813.66;;;7.94;96.08
73981;BME280;62348;51.412;5.436;2024-03-23T13:29:23;100820.69;;;7.95;95.40
73981;BME280;62348;51.412;5.436;2024-03-23T13:31:49;100815.78;;;7.92;95.70
73981;BME280;62348;51.412;5.436;2024-03-23T13:34:15;100818.66;;;7.86;92.96
73981;BME280;62348;51.412;5.436;2024-03-23T13:36:45;100815.44;;;7.72;89.98
73981;BME280;62348;51.412;5.436;2024-03-23T13:39:11;100801.91;;;7.67;93.73
73981;BME280;62348;51.412;5.436;2024-03-23T13:41:44;100791.94;;;7.67;94.98
73981;BME280;62348;51.412;5.436;2024-03-23T13:44:11;100802.72;;;7.67;94.60
73981;BME280;62348;51.412;5.436;2024-03-23T13:46:38;100794.31;;;7.63;95.81
73981;BME280;62348;51.412;5.436;2024-03-23T13:49:04;100791.75;;;7.57;97.22
73981;BME280;62348;51.412;5.436;2024-03-23T13:51:29;100783.84;;;7.50;99.43
73981;BME280;62348;51.412;5.436;2024-03-23T13:53:55;100785.84;;;7.43;100.00
73981;BME280;62348;51.412;5.436;2024-03-23T13:56:24;100794.56;;;7.33;100.00
73981;BME280;62348;51.412;5.436;2024-03-23T13:58:50;100792.50;;;7.23;100.00